sensor_id;sensor_type;location;lat;lon;timestamp;pressure;altitude;pressure_sealevel;temperature;humidity
26839;BME280;40088;51.214;6.786;2022-08-06T00:03:56;102210.56;;;21.77;51.78
26839;BME280;40088;51.214;6.786;2022-08-06T00:13:57;102222.53;;;21.78;51.43
26839;BME280;40088;51.214;6.786;2022-08-06T00:23:57;102221.69;;;21.77;51.66
26839;BME280;40088;51.214;6.786;2022-08-06T00:33:58;102236.63;;;21.76;51.62
26839;BME280;40088;51.214;6.786;2022-08-06T00:44:03;102233.63;;;21.78;51.62
26839;BME280;40088;51.214;6.786;2022-08-06T00:54:03;102239.38;;;21.76;51.83
26839;BME280;40088;51.214;6.786;2022-08-06T01:04:04;102248.56;;;21.77;51.80
26839;BME280;40088;51.214;6.786;2022-08-06T01:14:05;102248.72;;;21.75;52.07
26839;BME280;40088;51.214;6.786;2022-08-06T01:34:32;102260.69;;;21.76;52.01
26839;BME280;40088;51.214;6.786;2022-08-06T01:44:37;102262.81;;;21.74;52.17
26839;BME280;40088;51.214;6.786;2022-08-06T01:54:41;102282.22;;;21.74;52.33
26839;BME280;40088;51.214;6.786;2022-08-06T02:04:45;102282.22;;;21.74;52.34
26839;BME280;40088;51.214;6.786;2022-08-06T02:14:54;102286.94;;;21.73;52.00
26839;BME280;40088;51.214;6.786;2022-08-06T02:24:57;102293.34;;;21.74;52.00
26839;BME280;40088;51.214;6.786;2022-08-06T02:35:00;102289.91;;;21.72;51.90
26839;BME280;40088;51.214;6.786;2022-08-06T02:45:12;102295.44;;;21.72;52.21
26839;BME280;40088;51.214;6.786;2022-08-06T02:55:17;102305.69;;;21.71;51.98
26839;BME280;40088;51.214;6.786;2022-08-06T03:05:19;102314.00;;;21.71;52.16
26839;BME280;40088;51.214;6.786;2022-08-06T03:15:23;102313.13;;;21.71;52.27
26839;BME280;40088;51.214;6.786;2022-08-06T03:25:25;102315.91;;;21.71;51.92
26839;BME280;40088;51.214;6.786;2022-08-06T03:35:26;102326.13;;;21.70;51.98
26839;BME280;40088;51.214;6.786;2022-08-06T03:45:28;102326.34;;;21.69;52.31
26839;BME280;40088;51.214;6.786;2022-08-06T03:55:32;102328.25;;;21.68;52.25
26839;BME280;40088;51.214;6.786;2022-08-06T04:05:35;102339.34;;;21.68;52.31
26839;BME280;40088;51.214;6.786;2022-08-06T04:15:37;102345.75;;;21.69;52.44
26839;BME280;40088;51.214;6.786;2022-08-06T04:25:44;102346.81;;;21.68;52.14
26839;BME280;40088;51.214;6.786;2022-08-06T04:35:45;102361.53;;;21.68;52.30
26839;BME280;40088;51.214;6.786;2022-08-06T04:45:47;102377.13;;;21.69;52.33
26839;BME280;40088;51.214;6.786;2022-08-06T04:55:48;102380.31;;;21.66;52.50
26839;BME280;40088;51.214;6.786;2022-08-06T05:16:27;102395.03;;;21.67;52.49
26839;BME280;40088;51.214;6.786;2022-08-06T05:26:30;102396.06;;;21.66;52.80
26839;BME280;40088;51.214;6.786;2022-08-06T05:36:32;102410.81;;;21.66;52.71
26839;BME280;40088;51.214;6.786;2022-08-06T05:46:36;102415.47;;;21.66;52.37
26839;BME280;40088;51.214;6.786;2022-08-06T05:56:41;102421.91;;;21.66;52.79
26839;BME280;40088;51.214;6.786;2022-08-06T06:06:43;102433.19;;;21.65;52.58
26839;BME280;40088;51.214;6.786;2022-08-06T06:17:04;102433.19;;;21.65;52.42
26839;BME280;40088;51.214;6.786;2022-08-06T06:27:28;102433.19;;;21.65;52.34
26839;BME280;40088;51.214;6.786;2022-08-06T06:37:56;102438.72;;;21.65;52.31
26839;BME280;40088;51.214;6.786;2022-08-06T06:48:06;102458.16;;;21.65;52.66
26839;BME280;40088;51.214;6.786;2022-08-06T06:59:15;102463.69;;;21.65;52.62
26839;BME280;40088;51.214;6.786;2022-08-06T07:08:45;102469.25;;;21.65;52.45
26839;BME280;40088;51.214;6.786;2022-08-06T07:18:47;102481.41;;;21.64;52.63
26839;BME280;40088;51.214;6.786;2022-08-06T07:28:51;102491.63;;;21.63;52.26
26839;BME280;40088;51.214;6.786;2022-08-06T07:38:56;102488.88;;;21.63;52.41
26839;BME280;40088;51.214;6.786;2022-08-06T07:49:03;102488.00;;;21.63;52.08
26839;BME280;40088;51.214;6.786;2022-08-06T07:59:04;102489.91;;;21.62;52.04
26839;BME280;40088;51.214;6.786;2022-08-06T08:09:16;102485.44;;;21.61;51.42
26839;BME280;40088;51.214;6.786;2022-08-06T08:19:31;102489.91;;;21.62;51.63
26839;BME280;40088;51.214;6.786;2022-08-06T08:29:31;102490.97;;;21.61;51.29
26839;BME280;40088;51.214;6.786;2022-08-06T08:39:32;102490.97;;;21.61;50.88
26839;BME280;40088;51.214;6.786;2022-08-06T08:49:37;102488.19;;;21.61;50.79
26839;BME280;40088;51.214;6.786;2022-08-06T08:59:39;102489.22;;;21.60;50.57
26839;BME280;40088;51.214;6.786;2022-08-06T09:09:41;102493.75;;;21.61;50.47
26839;BME280;40088;51.214;6.786;2022-08-06T09:19:42;102485.59;;;21.59;50.61
26839;BME280;40088;51.214;6.786;2022-08-06T09:29:55;102497.53;;;21.60;50.25
26839;BME280;40088;51.214;6.786;2022-08-06T09:39:56;102491.13;;;21.59;49.92
26839;BME280;40088;51.214;6.786;2022-08-06T09:49:56;102491.13;;;21.59;49.89
26839;BME280;40088;51.214;6.786;2022-08-06T09:59:57;102489.22;;;21.60;49.85
26839;BME280;40088;51.214;6.786;2022-08-06T10:09:57;102497.53;;;21.60;49.66
26839;BME280;40088;51.214;6.786;2022-08-06T10:20:09;102492.00;;;21.60;49.52
26839;BME280;40088;51.214;6.786;2022-08-06T10:30:10;102492.00;;;21.60;49.47
26839;BME280;40088;51.214;6.786;2022-08-06T10:40:12;102489.22;;;21.60;49.61
26839;BME280;40088;51.214;6.786;2022-08-06T10:50:14;102476.41;;;21.59;48.85
26839;BME280;40088;51.214;6.786;2022-08-06T11:00:15;102475.34;;;21.60;49.03
26839;BME280;40088;51.214;6.786;2022-08-06T11:30:54;102457.84;;;21.59;49.13
26839;BME280;40088;51.214;6.786;2022-08-06T11:41:02;102443.13;;;21.59;48.75
26839;BME280;40088;51.214;6.786;2022-08-06T12:01:45;102434.78;;;21.59;49.79
26839;BME280;40088;51.214;6.786;2022-08-06T12:11:46;102443.81;;;21.61;49.95
26839;BME280;40088;51.214;6.786;2022-08-06T12:21:51;102431.84;;;21.61;50.19
26839;BME280;40088;51.214;6.786;2022-08-06T12:31:52;102417.97;;;21.61;50.59
26839;BME280;40088;51.214;6.786;2022-08-06T12:41:52;102417.78;;;21.62;50.67
26839;BME280;40088;51.214;6.786;2022-08-06T12:51:53;102410.53;;;21.61;50.94
26839;BME280;40088;51.214;6.786;2022-08-06T13:01:53;102398.56;;;21.61;50.72
26839;BME280;40088;51.214;6.786;2022-08-06T13:11:53;102407.56;;;21.63;50.70
26839;BME280;40088;51.214;6.786;2022-08-06T13:21:59;102395.41;;;21.64;51.15
26839;BME280;40088;51.214;6.786;2022-08-06T13:32:03;102387.94;;;21.64;51.23
26839;BME280;40088;51.214;6.786;2022-08-06T13:42:10;102383.25;;;21.65;50.99
26839;BME280;40088;51.214;6.786;2022-08-06T13:52:13;102362.97;;;21.64;51.12
26839;BME280;40088;51.214;6.786;2022-08-06T14:02:13;102362.75;;;21.66;51.33
26839;BME280;40088;51.214;6.786;2022-08-06T14:12:16;102360.88;;;21.66;51.09
26839;BME280;40088;51.214;6.786;2022-08-06T14:22:16;102355.50;;;21.65;51.65
26839;BME280;40088;51.214;6.786;2022-08-06T14:32:17;102350.81;;;21.65;51.09
26839;BME280;40088;51.214;6.786;2022-08-06T14:42:17;102348.91;;;21.66;51.26
26839;BME280;40088;51.214;6.786;2022-08-06T14:52:36;102337.81;;;21.66;51.49
26839;BME280;40088;51.214;6.786;2022-08-06T15:02:36;102332.25;;;21.66;51.66
26839;BME280;40088;51.214;6.786;2022-08-06T15:12:36;102313.72;;;21.66;51.70
26839;BME280;40088;51.214;6.786;2022-08-06T15:22:37;102297.94;;;21.67;51.92
26839;BME280;40088;51.214;6.786;2022-08-06T15:32:37;102303.47;;;21.67;51.69
26839;BME280;40088;51.214;6.786;2022-08-06T15:42:37;102314.56;;;21.67;51.75
26839;BME280;40088;51.214;6.786;2022-08-06T15:52:37;102298.78;;;21.67;51.30
26839;BME280;40088;51.214;6.786;2022-08-06T16:02:38;102294.31;;;21.66;51.34
26839;BME280;40088;51.214;6.786;2022-08-06T16:12:38;102292.19;;;21.68;50.95
26839;BME280;40088;51.214;6.786;2022-08-06T16:22:38;102283.88;;;21.68;50.98
26839;BME280;40088;51.214;6.786;2022-08-06T16:32:39;102279.38;;;21.67;50.85
26839;BME280;40088;51.214;6.786;2022-08-06T16:42:39;102282.16;;;21.67;51.00
26839;BME280;40088;51.214;6.786;2022-08-06T16:52:40;102272.97;;;21.67;51.11
26839;BME280;40088;51.214;6.786;2022-08-06T17:02:41;102272.97;;;21.67;51.02
26839;BME280;40088;51.214;6.786;2022-08-06T17:12:43;102268.28;;;21.67;51.33
26839;BME280;40088;51.214;6.786;2022-08-06T17:22:44;102271.06;;;21.67;51.14
26839;BME280;40088;51.214;6.786;2022-08-06T17:32:44;102270.19;;;21.67;50.75
26839;BME280;40088;51.214;6.786;2022-08-06T17:42:47;102265.50;;;21.67;50.60
26839;BME280;40088;51.214;6.786;2022-08-06T17:52:48;102267.59;;;21.65;50.51
26839;BME280;40088;51.214;6.786;2022-08-06T18:02:48;102271.91;;;21.68;50.27
26839;BME280;40088;51.214;6.786;2022-08-06T18:12:49;102264.44;;;21.68;49.96
26839;BME280;40088;51.214;6.786;2022-08-06T18:22:50;102268.28;;;21.67;49.61
26839;BME280;40088;51.214;6.786;2022-08-06T18:32:50;102273.53;;;21.62;48.57
26839;BME280;40088;51.214;6.786;2022-08-06T18:42:51;102272.69;;;21.62;46.91
26839;BME280;40088;51.214;6.786;2022-08-06T18:52:51;102279.94;;;21.63;46.63
26839;BME280;40088;51.214;6.786;2022-08-06T19:02:54;102279.28;;;21.61;46.62
26839;BME280;40088;51.214;6.786;2022-08-06T19:12:55;102287.59;;;21.61;46.17
26839;BME280;40088;51.214;6.786;2022-08-06T19:22:56;102295.22;;;21.58;45.94
26839;BME280;40088;51.214;6.786;2022-08-06T19:32:56;102302.13;;;21.63;46.10
26839;BME280;40088;51.214;6.786;2022-08-06T19:42:56;102310.25;;;21.64;46.66
26839;BME280;40088;51.214;6.786;2022-08-06T19:52:57;102313.88;;;21.65;48.42
26839;BME280;40088;51.214;6.786;2022-08-06T20:02:57;102320.50;;;21.64;49.79
26839;BME280;40088;51.214;6.786;2022-08-06T20:12:57;102325.84;;;21.65;49.97
26839;BME280;40088;51.214;6.786;2022-08-06T20:22:59;102332.44;;;21.64;50.52
26839;BME280;40088;51.214;6.786;2022-08-06T20:33:00;102337.81;;;21.66;50.48
26839;BME280;40088;51.214;6.786;2022-08-06T20:43:00;102335.91;;;21.66;50.72
26839;BME280;40088;51.214;6.786;2022-08-06T20:53:02;102341.47;;;21.66;50.47
26839;BME280;40088;51.214;6.786;2022-08-06T21:03:02;102343.34;;;21.66;50.78
26839;BME280;40088;51.214;6.786;2022-08-06T21:13:03;102341.47;;;21.66;50.46
26839;BME280;40088;51.214;6.786;2022-08-06T21:23:03;102336.78;;;21.67;50.88
26839;BME280;40088;51.214;6.786;2022-08-06T21:33:03;102340.56;;;21.66;50.83
26839;BME280;40088;51.214;6.786;2022-08-06T21:43:04;102341.47;;;21.66;50.79
26839;BME280;40088;51.214;6.786;2022-08-06T21:53:04;102335.91;;;21.66;50.75
26839;BME280;40088;51.214;6.786;2022-08-06T22:03:07;102335.03;;;21.66;50.82
26839;BME280;40088;51.214;6.786;2022-08-06T22:13:08;102333.31;;;21.65;50.75
26839;BME280;40088;51.214;6.786;2022-08-06T22:23:08;102329.69;;;21.64;51.12
26839;BME280;40088;51.214;6.786;2022-08-06T22:33:16;102313.03;;;21.64;50.87
26839;BME280;40088;51.214;6.786;2022-08-06T22:43:19;102306.41;;;21.65;50.80
26839;BME280;40088;51.214;6.786;2022-08-06T22:53:20;102305.56;;;21.65;50.71
26839;BME280;40088;51.214;6.786;2022-08-06T23:03:21;102295.31;;;21.65;50.73
26839;BME280;40088;51.214;6.786;2022-08-06T23:13:21;102302.78;;;21.65;50.99
26839;BME280;40088;51.214;6.786;2022-08-06T23:23:21;102300.00;;;21.65;50.77
26839;BME280;40088;51.214;6.786;2022-08-06T23:33:22;102292.56;;;21.65;50.47
26839;BME280;40088;51.214;6.786;2022-08-06T23:43:23;102301.94;;;21.64;50.94
26839;BME280;40088;51.214;6.786;2022-08-06T23:53:23;102290.84;;;21.64;50.79
